Advantage Spring — V7LO4 — position and weather

sailwx.info

Track history (hours):
 
Tides and Currents Weather Stations Pressure Air Temp Water Temp Dewpoint Dewpoint Depression Visibility Wind Speed Wind Dir Waves Ship Positions

Advantage Spring

Last reported at 2017-Sep-13 23:02 UTC. Time now 2017-Sep-19 17:06 UTC.
Position N 32°11' W 117°44'.

Length 274 m; draft 8.8 m.

Type: Tanker. MMSI: 538006308.

Date/timePositionNaut miles runAvg speedWind from/ knotsBaromVisibWave heightAir tempDewpointWater temp
2017-Sep-13 23:02N 32°11' W 117°44'013.6
2017-Sep-13 23:00N 32°11' W 117°44'713.6
2017-Sep-13 22:30N 32°18' W 117°45'713.3
2017-Sep-13 22:00N 32°24' W 117°47'713.4
2017-Sep-13 21:31N 32°31' W 117°48'611.6
2017-Sep-13 21:00N 32°37' W 117°49'611.2
2017-Sep-13 20:31N 32°42' W 117°51'713.5
2017-Sep-13 20:00N 32°48' W 117°54'713.5
2017-Sep-13 19:30N 32°55' W 117°57'713.3
2017-Sep-13 19:01N 33°01' W 117°59'713.5
2017-Sep-13 18:31N 33°07' W 118°01'713.4
2017-Sep-13 18:01N 33°14' W 118°04'613.0
2017-Sep-13 17:31N 33°20' W 118°07'612.4
2017-Sep-13 17:01N 33°26' W 118°09'612.4
2017-Sep-13 16:31N 33°32' W 118°11'611.8
2017-Sep-13 15:59N 33°38' W 118°13'511.2
2017-Sep-13 15:30N 33°43' W 118°11'2 4.4
2017-Sep-13 14:59N 33°44' W 118°09'0 0.0
2017-Sep-13 14:29N 33°44' W 118°09'0 0.0
2017-Sep-13 13:26N 33°44' W 118°09'0 0.0
2017-Sep-13 12:56N 33°44' W 118°09'0 0.1
2017-Sep-13 12:11N 33°44' W 118°09'0 0.0
2017-Sep-13 11:56N 33°44' W 118°09'0 0.0
2017-Sep-13 11:26N 33°44' W 118°09'0 0.0
2017-Sep-13 10:56N 33°44' W 118°09'0 0.0
2017-Sep-13 10:23N 33°44' W 118°09'0 0.0
2017-Sep-13 09:56N 33°44' W 118°09'0 0.0
2017-Sep-13 08:38N 33°44' W 118°09'0 0.1
2017-Sep-13 08:02N 33°44' W 118°09'0 0.0
2017-Sep-13 07:56N 33°44' W 118°09'0 0.0
2017-Sep-13 07:26N 33°44' W 118°09'0 0.1
2017-Sep-13 06:59N 33°44' W 118°09'0 0.1
2017-Sep-13 06:23N 33°44' W 118°09'0 0.0
2017-Sep-13 05:56N 33°44' W 118°09'0 0.0
2017-Sep-13 05:26N 33°44' W 118°09'0 0.0
2017-Sep-13 04:53N 33°44' W 118°09'0 0.0
2017-Sep-13 04:20N 33°44' W 118°09'0 0.0
2017-Sep-13 03:56N 33°44' W 118°09'0 0.0
2017-Sep-13 03:26N 33°44' W 118°09'0 0.0
2017-Sep-13 02:59N 33°44' W 118°09'0 0.0
2017-Sep-13 02:26N 33°44' W 118°09'0 0.0
2017-Sep-13 01:59N 33°44' W 118°09'0 0.0
2017-Sep-13 01:29N 33°44' W 118°09'0 0.3
2017-Sep-13 00:59N 33°44' W 118°09'0 0.8
2017-Sep-13 00:30N 33°44' W 118°09'3 5.4
2017-Sep-13 00:00N 33°42' W 118°11'4 8.0
2017-Sep-12 23:30N 33°38' W 118°12'510.1
2017-Sep-12 23:00N 33°36' W 118°17'510.9
2017-Sep-12 22:30N 33°37' W 118°24'612.4
2017-Sep-12 22:00N 33°41' W 118°30'510.1
2017-Sep-12 21:30N 33°44' W 118°35'612.0
2017-Sep-12 21:00N 33°49' W 118°32'611.4
2017-Sep-12 20:30N 33°54' W 118°29'1 0.0
2017-Sep-11 15:12N 33°54' W 118°27'0 1.0
2017-Sep-11 15:00N 33°54' W 118°27'2 4.2
2017-Sep-11 14:30N 33°54' W 118°30'1 0.3
2017-Sep-11 12:55N 33°54' W 118°29'0 0.0
2017-Sep-11 11:37N 33°54' W 118°29'0 0.2
2017-Sep-11 11:19N 33°54' W 118°29'0 0.0
2017-Sep-11 10:58N 33°54' W 118°29'0 0.1
2017-Sep-11 10:25N 33°54' W 118°29'0 0.0
2017-Sep-11 09:58N 33°54' W 118°29'0 0.0
2017-Sep-11 09:28N 33°54' W 118°29'0 0.0
2017-Sep-11 08:58N 33°54' W 118°29'0 0.1
2017-Sep-11 08:28N 33°54' W 118°29'0 0.2
2017-Sep-11 07:58N 33°54' W 118°29'0 0.1
2017-Sep-11 07:19N 33°54' W 118°29'0 0.1
2017-Sep-11 06:46N 33°54' W 118°29'0 0.1
2017-Sep-11 06:28N 33°54' W 118°29'0 0.1
2017-Sep-11 05:13N 33°54' W 118°29'0 0.0
2017-Sep-11 04:37N 33°54' W 118°29'0 0.0
2017-Sep-11 04:19N 33°54' W 118°29'0 0.1
2017-Sep-11 03:58N 33°54' W 118°29'0 0.1
2017-Sep-11 03:28N 33°54' W 118°29'0 0.1
2017-Sep-11 02:37N 33°54' W 118°29'0 0.1
2017-Sep-10 20:35N 33°54' W 118°29'0 2.6
2017-Sep-10 20:30N 33°54' W 118°28'1 2.1
2017-Sep-10 20:00N 33°54' W 118°27'0 0.0
2017-Sep-10 19:27N 33°54' W 118°27'0 0.2
2017-Sep-10 19:00N 33°54' W 118°27'0 0.0
2017-Sep-10 15:56N 33°54' W 118°27'0 0.8
2017-Sep-10 15:29N 33°54' W 118°27'1 2.8
2017-Sep-10 15:00N 33°53' W 118°29'1 0.8
2017-Sep-10 14:00N 33°54' W 118°29'0 0.2
2017-Sep-10 13:29N 33°54' W 118°29'0 0.1
2017-Sep-10 12:53N 33°54' W 118°29'0 0.1
2017-Sep-10 12:29N 33°54' W 118°29'0 0.1
2017-Sep-10 11:59N 33°54' W 118°29'0 0.0
2017-Sep-10 11:14N 33°54' W 118°29'0 0.1
2017-Sep-10 10:59N 33°54' W 118°29'0 0.0
2017-Sep-10 10:29N 33°54' W 118°29'0 0.0
2017-Sep-10 09:59N 33°54' W 118°29'0 0.0
2017-Sep-10 09:29N 33°54' W 118°29'0 0.1
2017-Sep-10 08:59N 33°54' W 118°29'0 0.1
2017-Sep-10 08:29N 33°54' W 118°29'0 0.1
2017-Sep-10 07:59N 33°54' W 118°29'0 0.0
2017-Sep-10 07:29N 33°54' W 118°29'0 0.0
2017-Sep-10 06:59N 33°54' W 118°29'0 0.0
2017-Sep-10 06:29N 33°54' W 118°29'0 0.0
2017-Sep-10 05:59N 33°54' W 118°29'0 0.0
2017-Sep-10 05:29N 33°54' W 118°29'0 0.0
2017-Sep-10 04:59N 33°54' W 118°29'0 0.0
2017-Sep-10 04:26N 33°54' W 118°29'0 0.1
2017-Sep-10 03:53N 33°54' W 118°29'0 0.1
2017-Sep-10 03:20N 33°54' W 118°29'0 0.0
2017-Sep-10 02:59N 33°54' W 118°29'0 0.0
2017-Sep-10 02:29N 33°54' W 118°29'0 0.0
2017-Sep-10 01:59N 33°54' W 118°29'0 0.0
2017-Sep-10 01:29N 33°54' W 118°29'0 0.0
2017-Sep-10 00:59N 33°54' W 118°29'0 0.0
2017-Sep-10 00:29N 33°54' W 118°29'0 0.0
2017-Sep-09 23:50N 33°54' W 118°29'0 0.1
2017-Sep-09 23:29N 33°54' W 118°29'0 0.1
2017-Sep-09 22:59N 33°54' W 118°29'0 0.0
2017-Sep-09 18:11N 33°54' W 118°29'0 0.0
2017-Sep-09 17:59N 33°54' W 118°29'0 0.0
2017-Sep-09 17:23N 33°54' W 118°29'0 0.0
2017-Sep-09 14:35N 33°54' W 118°29'0 0.0
2017-Sep-09 13:02N 33°54' W 118°29'0 0.0
2017-Sep-09 12:59N 33°54' W 118°29'0 0.0
2017-Sep-09 12:14N 33°54' W 118°29'0 0.0
2017-Sep-09 09:44N 33°54' W 118°29'0 0.1
2017-Sep-09 09:23N 33°54' W 118°29'0 0.1
2017-Sep-09 08:59N 33°54' W 118°29'0 0.0
2017-Sep-09 07:23N 33°54' W 118°29'0 0.1
2017-Sep-09 06:59N 33°54' W 118°29'0 0.1
2017-Sep-09 06:02N 33°54' W 118°29'0 1.0
2017-Sep-09 05:59N 33°54' W 118°29'0 0.0
2017-Sep-09 05:05N 33°54' W 118°29'0 0.0
2017-Sep-09 04:50N 33°54' W 118°29'0 0.3
2017-Sep-09 04:26N 33°54' W 118°29'0 0.1
2017-Sep-09 03:47N 33°54' W 118°29'0 0.1
2017-Sep-09 03:29N 33°54' W 118°29'0 0.0
2017-Sep-09 02:59N 33°54' W 118°29'0 0.0
2017-Sep-09 02:26N 33°54' W 118°29'0 0.0
2017-Sep-09 01:44N 33°54' W 118°29'0 0.0
2017-Sep-09 01:26N 33°54' W 118°29'0 0.0
2017-Sep-09 00:59N 33°54' W 118°29'0 0.0
2017-Sep-09 00:29N 33°54' W 118°29'0 0.0
2017-Sep-08 23:59N 33°54' W 118°29'0 0.0
2017-Sep-08 23:29N 33°54' W 118°29'0 0.0
2017-Sep-08 22:56N 33°54' W 118°29'0 0.1
2017-Sep-08 22:29N 33°54' W 118°29'0 0.0
2017-Sep-08 21:53N 33°54' W 118°29'0 0.0
2017-Sep-08 20:23N 33°54' W 118°29'0 0.0
2017-Sep-08 19:53N 33°54' W 118°29'0 0.1
2017-Sep-08 19:23N 33°54' W 118°29'0 0.0
2017-Sep-08 18:59N 33°54' W 118°29'0 0.0
2017-Sep-08 18:29N 33°54' W 118°29'0 0.1
2017-Sep-08 17:59N 33°54' W 118°29'0 0.1
2017-Sep-08 17:29N 33°54' W 118°29'0 0.1
2017-Sep-08 16:53N 33°54' W 118°29'0 0.0
2017-Sep-08 15:50N 33°54' W 118°29'0 0.1
2017-Sep-08 15:29N 33°54' W 118°29'0 0.1
2017-Sep-08 14:53N 33°54' W 118°29'0 0.0
2017-Sep-08 14:14N 33°54' W 118°29'0 0.0
2017-Sep-08 13:59N 33°54' W 118°29'0 0.0
2017-Sep-08 13:23N 33°54' W 118°29'0 0.1
2017-Sep-08 12:56N 33°54' W 118°29'0 0.1
2017-Sep-08 12:29N 33°54' W 118°29'0 0.1
2017-Sep-08 11:35N 33°54' W 118°29'0 0.0
2017-Sep-08 11:29N 33°54' W 118°29'0 0.1
2017-Sep-08 10:59N 33°54' W 118°29'0 0.0
2017-Sep-08 10:23N 33°54' W 118°29'0 0.0
2017-Sep-08 09:59N 33°54' W 118°29'0 0.0
2017-Sep-08 09:29N 33°54' W 118°29'0 0.0
2017-Sep-08 08:56N 33°54' W 118°29'0 0.1
2017-Sep-08 08:29N 33°54' W 118°29'0 0.0
2017-Sep-08 05:53N 33°54' W 118°29'0 0.0
2017-Sep-07 23:20N 33°54' W 118°29'0 0.0
2017-Sep-07 22:53N 33°54' W 118°29'0 0.0
2017-Sep-07 15:29N 33°54' W 118°29'0 0.1
2017-Sep-07 14:59N 33°54' W 118°29'0 0.0
2017-Sep-07 14:26N 33°54' W 118°29'0 0.0
2017-Sep-07 13:59N 33°54' W 118°29'0 0.1
2017-Sep-07 13:29N 33°54' W 118°29'0 0.0
2017-Sep-07 12:59N 33°54' W 118°29'0 0.0
2017-Sep-07 11:23N 33°54' W 118°29'0 0.1
2017-Sep-07 10:59N 33°54' W 118°29'0 0.0
2017-Sep-07 10:26N 33°54' W 118°29'0 0.0
2017-Sep-07 09:47N 33°54' W 118°29'0 0.0
2017-Sep-07 09:29N 33°54' W 118°29'0 0.0
2017-Sep-07 08:35N 33°54' W 118°29'0 0.1
2017-Sep-07 08:26N 33°54' W 118°29'0 0.0
2017-Sep-07 07:41N 33°54' W 118°29'0 0.0
2017-Sep-07 07:29N 33°54' W 118°29'0 0.0
2017-Sep-07 03:02N 33°54' W 118°29'0 0.0
2017-Sep-07 02:59N 33°54' W 118°29'0 0.0
2017-Sep-07 01:53N 33°54' W 118°29'0 0.0
2017-Sep-07 01:02N 33°54' W 118°29'0 0.1
2017-Sep-07 00:53N 33°54' W 118°29'0 0.0
2017-Sep-07 00:31N 33°54' W 118°29'0 0.1
2017-Sep-06 23:59N 33°54' W 118°29'0 0.0
2017-Sep-06 23:30N 33°54' W 118°29'0 0.0
2017-Sep-06 23:01N 33°54' W 118°29'0 0.0
2017-Sep-06 22:30N 33°54' W 118°29'0 0.0
2017-Sep-06 22:00N 33°54' W 118°29'0 0.0
2017-Sep-06 21:09N 33°54' W 118°29'0 0.1
2017-Sep-06 21:00N 33°54' W 118°29'0 0.1
2017-Sep-06 19:59N 33°54' W 118°29'0 0.5
2017-Sep-06 19:27N 33°54' W 118°29'1 2.6
2017-Sep-06 18:59N 33°54' W 118°27'0 0.0
2017-Sep-05 16:06N 33°54' W 118°27'0 0.6
2017-Sep-05 16:00N 33°54' W 118°27'1 2.8
2017-Sep-05 15:30N 33°53' W 118°28'2 3.1
2017-Sep-05 14:57N 33°54' W 118°30'1 1.5
2017-Sep-05 14:31N 33°54' W 118°29'0 0.0
2017-Sep-05 12:57N 33°54' W 118°29'0 0.0
2017-Sep-05 12:00N 33°54' W 118°29'0 0.0
2017-Sep-05 07:33N 33°54' W 118°29'0 0.1
2017-Sep-05 06:15N 33°54' W 118°29'0 0.0
2017-Sep-05 04:51N 33°54' W 118°29'5 0.2
2017-Sep-03 23:09N 33°49' W 118°30'  
Track history (hours):
 
Tides and Currents Weather Stations Pressure Air Temp Water Temp Dewpoint Dewpoint Depression Visibility Wind Speed Wind Dir Waves Ship Positions

Advantage Spring

Last reported at 2017-Sep-13 23:02 UTC. Time now 2017-Sep-19 17:06 UTC.
Position N 32°11' W 117°44'.

Length 274 m; draft 8.8 m.

Type: Tanker. MMSI: 538006308.

Date/timePositionNaut miles runAvg speedWind from/ knotsBaromVisibWave heightAir tempDewpointWater temp
2017-Sep-13 23:02N 32°11' W 117°44'013.6
2017-Sep-13 23:00N 32°11' W 117°44'713.6
2017-Sep-13 22:30N 32°18' W 117°45'713.3
2017-Sep-13 22:00N 32°24' W 117°47'713.4
2017-Sep-13 21:31N 32°31' W 117°48'611.6
2017-Sep-13 21:00N 32°37' W 117°49'611.2
2017-Sep-13 20:31N 32°42' W 117°51'713.5
2017-Sep-13 20:00N 32°48' W 117°54'713.5
2017-Sep-13 19:30N 32°55' W 117°57'713.3
2017-Sep-13 19:01N 33°01' W 117°59'713.5
2017-Sep-13 18:31N 33°07' W 118°01'713.4
2017-Sep-13 18:01N 33°14' W 118°04'613.0
2017-Sep-13 17:31N 33°20' W 118°07'612.4
2017-Sep-13 17:01N 33°26' W 118°09'612.4
2017-Sep-13 16:31N 33°32' W 118°11'611.8
2017-Sep-13 15:59N 33°38' W 118°13'511.2
2017-Sep-13 15:30N 33°43' W 118°11'2 4.4
2017-Sep-13 14:59N 33°44' W 118°09'0 0.0
2017-Sep-13 14:29N 33°44' W 118°09'0 0.0
2017-Sep-13 13:26N 33°44' W 118°09'0 0.0
2017-Sep-13 12:56N 33°44' W 118°09'0 0.1
2017-Sep-13 12:11N 33°44' W 118°09'0 0.0
2017-Sep-13 11:56N 33°44' W 118°09'0 0.0
2017-Sep-13 11:26N 33°44' W 118°09'0 0.0
2017-Sep-13 10:56N 33°44' W 118°09'0 0.0
2017-Sep-13 10:23N 33°44' W 118°09'0 0.0
2017-Sep-13 09:56N 33°44' W 118°09'0 0.0
2017-Sep-13 08:38N 33°44' W 118°09'0 0.1
2017-Sep-13 08:02N 33°44' W 118°09'0 0.0
2017-Sep-13 07:56N 33°44' W 118°09'0 0.0
2017-Sep-13 07:26N 33°44' W 118°09'0 0.1
2017-Sep-13 06:59N 33°44' W 118°09'0 0.1
2017-Sep-13 06:23N 33°44' W 118°09'0 0.0
2017-Sep-13 05:56N 33°44' W 118°09'0 0.0
2017-Sep-13 05:26N 33°44' W 118°09'0 0.0
2017-Sep-13 04:53N 33°44' W 118°09'0 0.0
2017-Sep-13 04:20N 33°44' W 118°09'0 0.0
2017-Sep-13 03:56N 33°44' W 118°09'0 0.0
2017-Sep-13 03:26N 33°44' W 118°09'0 0.0
2017-Sep-13 02:59N 33°44' W 118°09'0 0.0
2017-Sep-13 02:26N 33°44' W 118°09'0 0.0
2017-Sep-13 01:59N 33°44' W 118°09'0 0.0
2017-Sep-13 01:29N 33°44' W 118°09'0 0.3
2017-Sep-13 00:59N 33°44' W 118°09'0 0.8
2017-Sep-13 00:30N 33°44' W 118°09'3 5.4
2017-Sep-13 00:00N 33°42' W 118°11'4 8.0
2017-Sep-12 23:30N 33°38' W 118°12'510.1
2017-Sep-12 23:00N 33°36' W 118°17'510.9
2017-Sep-12 22:30N 33°37' W 118°24'612.4
2017-Sep-12 22:00N 33°41' W 118°30'510.1
2017-Sep-12 21:30N 33°44' W 118°35'612.0
2017-Sep-12 21:00N 33°49' W 118°32'611.4
2017-Sep-12 20:30N 33°54' W 118°29'1 0.0
2017-Sep-11 15:12N 33°54' W 118°27'0 1.0
2017-Sep-11 15:00N 33°54' W 118°27'2 4.2
2017-Sep-11 14:30N 33°54' W 118°30'1 0.3
2017-Sep-11 12:55N 33°54' W 118°29'0 0.0
2017-Sep-11 11:37N 33°54' W 118°29'0 0.2
2017-Sep-11 11:19N 33°54' W 118°29'0 0.0
2017-Sep-11 10:58N 33°54' W 118°29'0 0.1
2017-Sep-11 10:25N 33°54' W 118°29'0 0.0
2017-Sep-11 09:58N 33°54' W 118°29'0 0.0
2017-Sep-11 09:28N 33°54' W 118°29'0 0.0
2017-Sep-11 08:58N 33°54' W 118°29'0 0.1
2017-Sep-11 08:28N 33°54' W 118°29'0 0.2
2017-Sep-11 07:58N 33°54' W 118°29'0 0.1
2017-Sep-11 07:19N 33°54' W 118°29'0 0.1
2017-Sep-11 06:46N 33°54' W 118°29'0 0.1
2017-Sep-11 06:28N 33°54' W 118°29'0 0.1
2017-Sep-11 05:13N 33°54' W 118°29'0 0.0
2017-Sep-11 04:37N 33°54' W 118°29'0 0.0
2017-Sep-11 04:19N 33°54' W 118°29'0 0.1
2017-Sep-11 03:58N 33°54' W 118°29'0 0.1
2017-Sep-11 03:28N 33°54' W 118°29'0 0.1
2017-Sep-11 02:37N 33°54' W 118°29'0 0.1
2017-Sep-10 20:35N 33°54' W 118°29'0 2.6
2017-Sep-10 20:30N 33°54' W 118°28'1 2.1
2017-Sep-10 20:00N 33°54' W 118°27'0 0.0
2017-Sep-10 19:27N 33°54' W 118°27'0 0.2
2017-Sep-10 19:00N 33°54' W 118°27'0 0.0
2017-Sep-10 15:56N 33°54' W 118°27'0 0.8
2017-Sep-10 15:29N 33°54' W 118°27'1 2.8
2017-Sep-10 15:00N 33°53' W 118°29'1 0.8
2017-Sep-10 14:00N 33°54' W 118°29'0 0.2
2017-Sep-10 13:29N 33°54' W 118°29'0 0.1
2017-Sep-10 12:53N 33°54' W 118°29'0 0.1
2017-Sep-10 12:29N 33°54' W 118°29'0 0.1
2017-Sep-10 11:59N 33°54' W 118°29'0 0.0
2017-Sep-10 11:14N 33°54' W 118°29'0 0.1
2017-Sep-10 10:59N 33°54' W 118°29'0 0.0
2017-Sep-10 10:29N 33°54' W 118°29'0 0.0
2017-Sep-10 09:59N 33°54' W 118°29'0 0.0
2017-Sep-10 09:29N 33°54' W 118°29'0 0.1
2017-Sep-10 08:59N 33°54' W 118°29'0 0.1
2017-Sep-10 08:29N 33°54' W 118°29'0 0.1
2017-Sep-10 07:59N 33°54' W 118°29'0 0.0
2017-Sep-10 07:29N 33°54' W 118°29'0 0.0
2017-Sep-10 06:59N 33°54' W 118°29'0 0.0
2017-Sep-10 06:29N 33°54' W 118°29'0 0.0
2017-Sep-10 05:59N 33°54' W 118°29'0 0.0
2017-Sep-10 05:29N 33°54' W 118°29'0 0.0
2017-Sep-10 04:59N 33°54' W 118°29'0 0.0
2017-Sep-10 04:26N 33°54' W 118°29'0 0.1
2017-Sep-10 03:53N 33°54' W 118°29'0 0.1
2017-Sep-10 03:20N 33°54' W 118°29'0 0.0
2017-Sep-10 02:59N 33°54' W 118°29'0 0.0
2017-Sep-10 02:29N 33°54' W 118°29'0 0.0
2017-Sep-10 01:59N 33°54' W 118°29'0 0.0
2017-Sep-10 01:29N 33°54' W 118°29'0 0.0
2017-Sep-10 00:59N 33°54' W 118°29'0 0.0
2017-Sep-10 00:29N 33°54' W 118°29'0 0.0
2017-Sep-09 23:50N 33°54' W 118°29'0 0.1
2017-Sep-09 23:29N 33°54' W 118°29'0 0.1
2017-Sep-09 22:59N 33°54' W 118°29'0 0.0
2017-Sep-09 18:11N 33°54' W 118°29'0 0.0
2017-Sep-09 17:59N 33°54' W 118°29'0 0.0
2017-Sep-09 17:23N 33°54' W 118°29'0 0.0
2017-Sep-09 14:35N 33°54' W 118°29'0 0.0
2017-Sep-09 13:02N 33°54' W 118°29'0 0.0
2017-Sep-09 12:59N 33°54' W 118°29'0 0.0
2017-Sep-09 12:14N 33°54' W 118°29'0 0.0
2017-Sep-09 09:44N 33°54' W 118°29'0 0.1
2017-Sep-09 09:23N 33°54' W 118°29'0 0.1
2017-Sep-09 08:59N 33°54' W 118°29'0 0.0
2017-Sep-09 07:23N 33°54' W 118°29'0 0.1
2017-Sep-09 06:59N 33°54' W 118°29'0 0.1
2017-Sep-09 06:02N 33°54' W 118°29'0 1.0
2017-Sep-09 05:59N 33°54' W 118°29'0 0.0
2017-Sep-09 05:05N 33°54' W 118°29'0 0.0
2017-Sep-09 04:50N 33°54' W 118°29'0 0.3
2017-Sep-09 04:26N 33°54' W 118°29'0 0.1
2017-Sep-09 03:47N 33°54' W 118°29'0 0.1
2017-Sep-09 03:29N 33°54' W 118°29'0 0.0
2017-Sep-09 02:59N 33°54' W 118°29'0 0.0
2017-Sep-09 02:26N 33°54' W 118°29'0 0.0
2017-Sep-09 01:44N 33°54' W 118°29'0 0.0
2017-Sep-09 01:26N 33°54' W 118°29'0 0.0
2017-Sep-09 00:59N 33°54' W 118°29'0 0.0
2017-Sep-09 00:29N 33°54' W 118°29'0 0.0
2017-Sep-08 23:59N 33°54' W 118°29'0 0.0
2017-Sep-08 23:29N 33°54' W 118°29'0 0.0
2017-Sep-08 22:56N 33°54' W 118°29'0 0.1
2017-Sep-08 22:29N 33°54' W 118°29'0 0.0
2017-Sep-08 21:53N 33°54' W 118°29'0 0.0
2017-Sep-08 20:23N 33°54' W 118°29'0 0.0
2017-Sep-08 19:53N 33°54' W 118°29'0 0.1
2017-Sep-08 19:23N 33°54' W 118°29'0 0.0
2017-Sep-08 18:59N 33°54' W 118°29'0 0.0
2017-Sep-08 18:29N 33°54' W 118°29'0 0.1
2017-Sep-08 17:59N 33°54' W 118°29'0 0.1
2017-Sep-08 17:29N 33°54' W 118°29'0 0.1
2017-Sep-08 16:53N 33°54' W 118°29'0 0.0
2017-Sep-08 15:50N 33°54' W 118°29'0 0.1
2017-Sep-08 15:29N 33°54' W 118°29'0 0.1
2017-Sep-08 14:53N 33°54' W 118°29'0 0.0
2017-Sep-08 14:14N 33°54' W 118°29'0 0.0
2017-Sep-08 13:59N 33°54' W 118°29'0 0.0
2017-Sep-08 13:23N 33°54' W 118°29'0 0.1
2017-Sep-08 12:56N 33°54' W 118°29'0 0.1
2017-Sep-08 12:29N 33°54' W 118°29'0 0.1
2017-Sep-08 11:35N 33°54' W 118°29'0 0.0
2017-Sep-08 11:29N 33°54' W 118°29'0 0.1
2017-Sep-08 10:59N 33°54' W 118°29'0 0.0
2017-Sep-08 10:23N 33°54' W 118°29'0 0.0
2017-Sep-08 09:59N 33°54' W 118°29'0 0.0
2017-Sep-08 09:29N 33°54' W 118°29'0 0.0
2017-Sep-08 08:56N 33°54' W 118°29'0 0.1
2017-Sep-08 08:29N 33°54' W 118°29'0 0.0
2017-Sep-08 05:53N 33°54' W 118°29'0 0.0
2017-Sep-07 23:20N 33°54' W 118°29'0 0.0
2017-Sep-07 22:53N 33°54' W 118°29'0 0.0
2017-Sep-07 15:29N 33°54' W 118°29'0 0.1
2017-Sep-07 14:59N 33°54' W 118°29'0 0.0
2017-Sep-07 14:26N 33°54' W 118°29'0 0.0
2017-Sep-07 13:59N 33°54' W 118°29'0 0.1
2017-Sep-07 13:29N 33°54' W 118°29'0 0.0
2017-Sep-07 12:59N 33°54' W 118°29'0 0.0
2017-Sep-07 11:23N 33°54' W 118°29'0 0.1
2017-Sep-07 10:59N 33°54' W 118°29'0 0.0
2017-Sep-07 10:26N 33°54' W 118°29'0 0.0
2017-Sep-07 09:47N 33°54' W 118°29'0 0.0
2017-Sep-07 09:29N 33°54' W 118°29'0 0.0
2017-Sep-07 08:35N 33°54' W 118°29'0 0.1
2017-Sep-07 08:26N 33°54' W 118°29'0 0.0
2017-Sep-07 07:41N 33°54' W 118°29'0 0.0
2017-Sep-07 07:29N 33°54' W 118°29'0 0.0
2017-Sep-07 03:02N 33°54' W 118°29'0 0.0
2017-Sep-07 02:59N 33°54' W 118°29'0 0.0
2017-Sep-07 01:53N 33°54' W 118°29'0 0.0
2017-Sep-07 01:02N 33°54' W 118°29'0 0.1
2017-Sep-07 00:53N 33°54' W 118°29'0 0.0
2017-Sep-07 00:31N 33°54' W 118°29'0 0.1
2017-Sep-06 23:59N 33°54' W 118°29'0 0.0
2017-Sep-06 23:30N 33°54' W 118°29'0 0.0
2017-Sep-06 23:01N 33°54' W 118°29'0 0.0
2017-Sep-06 22:30N 33°54' W 118°29'0 0.0
2017-Sep-06 22:00N 33°54' W 118°29'0 0.0
2017-Sep-06 21:09N 33°54' W 118°29'0 0.1
2017-Sep-06 21:00N 33°54' W 118°29'0 0.1
2017-Sep-06 19:59N 33°54' W 118°29'0 0.5
2017-Sep-06 19:27N 33°54' W 118°29'1 2.6
2017-Sep-06 18:59N 33°54' W 118°27'0 0.0
2017-Sep-05 16:06N 33°54' W 118°27'0 0.6
2017-Sep-05 16:00N 33°54' W 118°27'1 2.8
2017-Sep-05 15:30N 33°53' W 118°28'2 3.1
2017-Sep-05 14:57N 33°54' W 118°30'1 1.5
2017-Sep-05 14:31N 33°54' W 118°29'0 0.0
2017-Sep-05 12:57N 33°54' W 118°29'0 0.0
2017-Sep-05 12:00N 33°54' W 118°29'0 0.0
2017-Sep-05 07:33N 33°54' W 118°29'0 0.1
2017-Sep-05 06:15N 33°54' W 118°29'0 0.0
2017-Sep-05 04:51N 33°54' W 118°29'5 0.2
2017-Sep-03 23:09N 33°49' W 118°30'  

Dump ship's entire track history